createdAt,value
2017-07-01T00:00:01.316Z,999.54
2017-07-01T00:01:10.311Z,999.49
2017-07-01T00:02:19.359Z,999.49
2017-07-01T00:03:28.390Z,999.56
2017-07-01T00:04:37.395Z,999.52
2017-07-01T00:05:46.832Z,999.5
2017-07-01T00:06:55.779Z,999.53
2017-07-01T00:08:04.772Z,999.5
2017-07-01T00:09:13.784Z,999.51
2017-07-01T00:10:22.849Z,999.52
2017-07-01T00:11:31.800Z,999.49
2017-07-01T00:12:40.878Z,999.53
2017-07-01T00:13:49.877Z,999.51
2017-07-01T00:14:58.819Z,999.46
2017-07-01T00:16:07.905Z,999.44
2017-07-01T00:17:16.884Z,999.5
2017-07-01T00:18:26.217Z,999.49
2017-07-01T00:19:35.203Z,999.46
2017-07-01T00:20:44.160Z,999.46
2017-07-01T00:21:53.104Z,999.44
2017-07-01T00:23:02.383Z,999.45
2017-07-01T00:24:11.330Z,999.47
2017-07-01T00:25:20.283Z,999.44
2017-07-01T00:26:29.290Z,999.44
2017-07-01T00:27:38.436Z,999.45
2017-07-01T00:28:47.377Z,999.42
2017-07-01T00:29:56.419Z,999.41
2017-07-01T00:31:05.885Z,999.4
2017-07-01T00:32:15.184Z,999.44
2017-07-01T00:33:24.286Z,999.45
2017-07-01T00:34:33.418Z,999.45
2017-07-01T00:35:42.558Z,999.43
2017-07-01T00:36:51.697Z,999.42
2017-07-01T00:38:00.788Z,999.41
2017-07-01T00:39:09.775Z,999.43
2017-07-01T00:40:19.016Z,999.45
2017-07-01T00:41:27.971Z,999.48
2017-07-01T00:42:37.047Z,999.46
2017-07-01T00:43:46.040Z,999.42
2017-07-01T00:44:55.023Z,999.47
2017-07-01T00:46:04.054Z,999.46
2017-07-01T00:47:13.195Z,999.45
2017-07-01T00:48:22.466Z,999.42
2017-07-01T00:49:31.511Z,999.47
2017-07-01T00:50:40.585Z,999.45
2017-07-01T00:51:49.629Z,999.41
2017-07-01T00:52:58.742Z,999.44
2017-07-01T00:54:07.750Z,999.45
2017-07-01T00:55:16.846Z,999.48
2017-07-01T00:56:25.831Z,999.43
2017-07-01T00:57:34.936Z,999.47
2017-07-01T00:58:43.998Z,999.44
2017-07-01T00:59:53.421Z,999.47
2017-07-01T01:01:02.455Z,999.45
2017-07-01T01:02:11.469Z,999.45
2017-07-01T01:03:20.495Z,999.46
2017-07-01T01:04:29.520Z,999.46
2017-07-01T01:05:38.618Z,999.44
2017-07-01T01:06:47.615Z,999.43
2017-07-01T01:07:56.658Z,999.43
2017-07-01T01:09:06.000Z,999.42
2017-07-01T01:10:15.016Z,999.44
2017-07-01T01:11:24.128Z,999.44
2017-07-01T01:12:33.069Z,999.39
2017-07-01T01:13:42.141Z,999.38
2017-07-01T01:14:51.171Z,999.38
2017-07-01T01:16:00.115Z,999.34
2017-07-01T01:17:09.169Z,999.35
2017-07-01T01:18:18.211Z,999.33
2017-07-01T01:19:27.164Z,999.35
2017-07-01T01:20:36.231Z,999.39
2017-07-01T01:21:45.196Z,999.35
2017-07-01T01:22:54.225Z,999.35
2017-07-01T01:24:03.208Z,999.33
2017-07-01T01:25:12.301Z,999.35
2017-07-01T01:26:21.313Z,999.34
2017-07-01T01:27:30.455Z,999.33
2017-07-01T01:28:39.816Z,999.32
2017-07-01T01:29:48.770Z,999.35
2017-07-01T01:30:57.793Z,999.35
2017-07-01T01:32:06.900Z,999.31
2017-07-01T01:33:15.846Z,999.33
2017-07-01T01:34:24.892Z,999.31
2017-07-01T01:35:33.980Z,999.31
2017-07-01T01:36:42.942Z,999.31
2017-07-01T01:37:52.045Z,999.3
2017-07-01T01:39:01.016Z,999.3
2017-07-01T01:40:10.053Z,999.29
2017-07-01T01:41:19.394Z,999.29
2017-07-01T01:42:28.407Z,999.28
2017-07-01T01:43:37.749Z,999.28
2017-07-01T01:44:46.819Z,999.28
2017-07-01T01:45:56.080Z,999.3
2017-07-01T01:47:05.108Z,999.32
2017-07-01T01:48:14.155Z,999.3
2017-07-01T01:49:23.099Z,999.31
2017-07-01T01:50:32.233Z,999.35
2017-07-01T01:51:41.267Z,999.36
2017-07-01T01:52:50.214Z,999.35
2017-07-01T01:53:59.346Z,999.38
2017-07-01T01:55:08.794Z,999.39
2017-07-01T01:56:18.137Z,999.38
2017-07-01T01:57:27.110Z,999.38
2017-07-01T01:58:36.411Z,999.37
2017-07-01T01:59:45.441Z,999.37
2017-07-01T02:00:54.388Z,999.35
2017-07-01T02:02:03.664Z,999.33
2017-07-01T02:03:12.610Z,999.31
2017-07-01T02:04:21.558Z,999.33
2017-07-01T02:05:30.831Z,999.3
2017-07-01T02:06:39.858Z,999.31
2017-07-01T02:07:48.804Z,999.29
2017-07-01T02:08:57.746Z,999.31
2017-07-01T02:10:06.698Z,999.32
2017-07-01T02:11:15.642Z,999.31
2017-07-01T02:12:24.592Z,999.34
2017-07-01T02:13:33.530Z,999.32
2017-07-01T02:14:42.560Z,999.34
2017-07-01T02:15:51.501Z,999.33
2017-07-01T02:17:00.448Z,999.33
2017-07-01T02:18:09.398Z,999.34
2017-07-01T02:19:18.349Z,999.33
2017-07-01T02:20:27.626Z,999.36
2017-07-01T02:21:36.576Z,999.33
2017-07-01T02:22:45.527Z,999.36
2017-07-01T02:23:54.472Z,999.36
2017-07-01T02:25:03.749Z,999.39
2017-07-01T02:26:12.699Z,999.37
2017-07-01T02:27:21.647Z,999.38
2017-07-01T02:28:30.590Z,999.42
2017-07-01T02:29:39.533Z,999.38
2017-07-01T02:30:48.488Z,999.4
2017-07-01T02:31:57.429Z,999.41
2017-07-01T02:33:06.377Z,999.38
2017-07-01T02:34:15.329Z,999.42
2017-07-01T02:35:24.607Z,999.4
2017-07-01T02:36:33.562Z,999.41
2017-07-01T02:37:42.507Z,999.42
2017-07-01T02:38:51.458Z,999.42
2017-07-01T02:40:00.402Z,999.39
2017-07-01T02:41:09.364Z,999.43
2017-07-01T02:42:18.391Z,999.38
2017-07-01T02:43:27.670Z,999.42
2017-07-01T02:44:36.616Z,999.39
2017-07-01T02:45:45.563Z,999.39
2017-07-01T02:46:54.512Z,999.43
2017-07-01T02:48:03.458Z,999.37
2017-07-01T02:49:12.404Z,999.42
2017-07-01T02:50:21.348Z,999.4
2017-07-01T02:51:30.293Z,999.42
2017-07-01T02:52:39.241Z,999.42
2017-07-01T02:53:48.187Z,999.38
2017-07-01T02:54:57.138Z,999.36
2017-07-01T02:56:06.088Z,999.37
2017-07-01T02:57:15.033Z,999.37
2017-07-01T02:58:23.975Z,999.39
2017-07-01T02:59:32.922Z,999.33
2017-07-01T03:00:41.950Z,999.33
2017-07-01T03:01:50.898Z,999.32
2017-07-01T03:02:59.846Z,999.31
2017-07-01T03:04:08.831Z,999.25
2017-07-01T03:05:17.777Z,999.27
2017-07-01T03:06:26.718Z,999.24
2017-07-01T03:07:35.671Z,999.21
2017-07-01T03:08:44.621Z,999.23
2017-07-01T03:09:53.895Z,999.23
2017-07-01T03:11:02.840Z,999.25
2017-07-01T03:12:11.787Z,999.25
2017-07-01T03:13:20.730Z,999.24
2017-07-01T03:14:29.677Z,999.24
2017-07-01T03:15:38.636Z,999.25
2017-07-01T03:16:47.581Z,999.25
2017-07-01T03:17:56.847Z,999.21
2017-07-01T03:19:05.792Z,999.23
2017-07-01T03:20:14.738Z,999.22
2017-07-01T03:21:23.675Z,999.26
2017-07-01T03:22:32.716Z,999.2
2017-07-01T03:23:41.689Z,999.21
2017-07-01T03:24:50.641Z,999.23
2017-07-01T03:25:59.595Z,999.21
2017-07-01T03:27:08.542Z,999.18
2017-07-01T03:28:17.487Z,999.21
2017-07-01T03:29:26.433Z,999.25
2017-07-01T03:30:35.381Z,999.23
2017-07-01T03:31:44.329Z,999.27
2017-07-01T03:32:53.284Z,999.27
2017-07-01T03:34:02.236Z,999.2
2017-07-01T03:35:11.182Z,999.25
2017-07-01T03:36:20.129Z,999.22
2017-07-01T03:37:29.080Z,999.2
2017-07-01T03:38:38.027Z,999.19
2017-07-01T03:39:46.977Z,999.17
2017-07-01T03:40:55.934Z,999.19
2017-07-01T03:42:04.878Z,999.17
2017-07-01T03:43:13.824Z,999.15
2017-07-01T03:44:22.768Z,999.19
2017-07-01T03:45:32.064Z,999.2
2017-07-01T03:46:41.019Z,999.16
2017-07-01T03:47:49.967Z,999.14
2017-07-01T03:48:58.945Z,999.17
2017-07-01T03:50:07.884Z,999.16
2017-07-01T03:51:16.826Z,999.2
2017-07-01T03:52:25.775Z,999.2
2017-07-01T03:53:34.719Z,999.18
2017-07-01T03:54:49.948Z,999.22
2017-07-01T03:55:58.904Z,999.21
2017-07-01T03:57:07.852Z,999.23
2017-07-01T03:58:16.798Z,999.26
2017-07-01T03:59:25.745Z,999.23
2017-07-01T04:00:34.687Z,999.22
2017-07-01T04:01:43.721Z,999.24
2017-07-01T04:02:52.996Z,999.28
2017-07-01T04:04:02.345Z,999.29
2017-07-01T04:05:11.593Z,999.28
2017-07-01T04:06:20.872Z,999.28
2017-07-01T04:07:29.828Z,999.25
2017-07-01T04:08:38.769Z,999.25
2017-07-01T04:09:47.715Z,999.24
2017-07-01T04:10:56.663Z,999.2
2017-07-01T04:12:05.605Z,999.23
2017-07-01T04:13:14.562Z,999.21
2017-07-01T04:14:23.506Z,999.23
2017-07-01T04:15:32.450Z,999.29
2017-07-01T04:16:41.397Z,999.26
2017-07-01T04:17:50.340Z,999.22
2017-07-01T04:18:59.280Z,999.24
2017-07-01T04:20:08.239Z,999.22
2017-07-01T04:21:17.182Z,999.21
2017-07-01T04:22:26.133Z,999.2
2017-07-01T04:23:35.077Z,999.2
2017-07-01T04:24:44.025Z,999.22
2017-07-01T04:25:52.967Z,999.19
2017-07-01T04:27:01.926Z,999.23
2017-07-01T04:28:10.871Z,999.2
2017-07-01T04:29:19.814Z,999.18
2017-07-01T04:30:28.764Z,999.16
2017-07-01T04:31:37.711Z,999.18
2017-07-01T04:32:46.980Z,999.19
2017-07-01T04:33:55.935Z,999.18
2017-07-01T04:35:04.974Z,999.17
2017-07-01T04:36:14.010Z,999.18
2017-07-01T04:37:22.953Z,999.19
2017-07-01T04:38:31.990Z,999.17
2017-07-01T04:39:40.937Z,999.21
2017-07-01T04:40:50.209Z,999.2
2017-07-01T04:41:59.159Z,999.16
2017-07-01T04:43:08.430Z,999.2
2017-07-01T04:44:17.365Z,999.22
2017-07-01T04:45:26.313Z,999.23
2017-07-01T04:46:35.259Z,999.2
2017-07-01T04:47:44.208Z,999.24
2017-07-01T04:48:53.153Z,999.22
2017-07-01T04:50:02.106Z,999.18
2017-07-01T04:51:11.048Z,999.18
2017-07-01T04:52:20.000Z,999.22
2017-07-01T04:53:28.949Z,999.23
2017-07-01T04:54:37.903Z,999.21
2017-07-01T04:55:46.854Z,999.21
2017-07-01T04:56:55.799Z,999.25
2017-07-01T04:58:04.748Z,999.28
2017-07-01T04:59:13.786Z,999.26
2017-07-01T05:00:22.730Z,999.29
2017-07-01T05:01:31.680Z,999.31
2017-07-01T05:02:40.640Z,999.31
2017-07-01T05:03:49.579Z,999.3
2017-07-01T05:04:58.604Z,999.32
2017-07-01T05:06:07.551Z,999.34
2017-07-01T05:07:16.490Z,999.32
2017-07-01T05:08:25.457Z,999.38
2017-07-01T05:09:34.397Z,999.38
2017-07-01T05:10:43.343Z,999.42
2017-07-01T05:11:52.617Z,999.44
2017-07-01T05:13:01.559Z,999.46
2017-07-01T05:14:10.839Z,999.48
2017-07-01T05:15:19.836Z,999.43
2017-07-01T05:16:28.783Z,999.43
2017-07-01T05:17:37.816Z,999.48
2017-07-01T05:18:46.751Z,999.47
2017-07-01T05:19:55.686Z,999.47
2017-07-01T05:21:04.645Z,999.5
2017-07-01T05:22:13.602Z,999.51
2017-07-01T05:23:22.553Z,999.52
2017-07-01T05:24:31.502Z,999.49
2017-07-01T05:25:40.447Z,999.51
2017-07-01T05:26:49.414Z,999.49
2017-07-01T05:27:58.371Z,999.46
2017-07-01T05:29:07.321Z,999.47
2017-07-01T05:30:16.259Z,999.43
2017-07-01T05:31:25.203Z,999.48
2017-07-01T05:32:34.153Z,999.54
2017-07-01T05:33:43.099Z,999.53
2017-07-01T05:34:52.036Z,999.53
2017-07-01T05:36:01.068Z,999.57
2017-07-01T05:37:10.014Z,999.57
2017-07-01T05:38:18.962Z,999.52
2017-07-01T05:39:27.905Z,999.62
2017-07-01T05:40:36.843Z,999.58
2017-07-01T05:41:45.790Z,999.56
2017-07-01T05:42:54.758Z,999.58
2017-07-01T05:44:03.717Z,999.58
2017-07-01T05:45:12.665Z,999.57
2017-07-01T05:46:21.613Z,999.6
2017-07-01T05:47:30.971Z,999.64
2017-07-01T05:48:39.927Z,999.65
2017-07-01T05:49:48.874Z,999.66
2017-07-01T05:50:57.824Z,999.66
2017-07-01T05:52:06.770Z,999.64
2017-07-01T05:53:15.715Z,999.61
2017-07-01T05:54:24.661Z,999.57
2017-07-01T05:55:33.611Z,999.55
2017-07-01T05:56:42.556Z,999.58
2017-07-01T05:57:51.504Z,999.55
2017-07-01T05:59:00.440Z,999.55
2017-07-01T06:00:09.386Z,999.54
2017-07-01T06:01:18.331Z,999.47
2017-07-01T06:02:27.282Z,999.47
2017-07-01T06:03:36.224Z,999.5
2017-07-01T06:04:45.166Z,999.51
2017-07-01T06:05:54.114Z,999.54
2017-07-01T06:07:03.060Z,999.54
2017-07-01T06:08:12.543Z,999.52
2017-07-01T06:09:21.835Z,999.57
2017-07-01T06:10:30.957Z,999.58
2017-07-01T06:11:40.001Z,999.6
2017-07-01T06:12:49.367Z,999.63
2017-07-01T06:13:58.311Z,999.66
2017-07-01T06:15:07.268Z,999.63
2017-07-01T06:16:16.203Z,999.69
2017-07-01T06:17:25.241Z,999.67
2017-07-01T06:18:34.224Z,999.65
2017-07-01T06:19:43.168Z,999.62
2017-07-01T06:20:52.214Z,999.65
2017-07-01T06:22:01.217Z,999.67
2017-07-01T06:23:10.167Z,999.63
2017-07-01T06:24:19.197Z,999.67
2017-07-01T06:25:28.151Z,999.72
2017-07-01T06:26:37.098Z,999.71
2017-07-01T06:27:46.042Z,999.78
2017-07-01T06:28:54.994Z,999.8
2017-07-01T06:30:03.936Z,999.77
2017-07-01T06:31:13.248Z,999.8
2017-07-01T06:32:22.211Z,999.82
2017-07-01T06:33:31.165Z,999.75
2017-07-01T06:34:40.117Z,999.75
2017-07-01T06:35:49.065Z,999.74
2017-07-01T06:36:58.064Z,999.74
2017-07-01T06:38:07.059Z,999.72
2017-07-01T06:39:16.090Z,999.75
2017-07-01T06:40:25.048Z,999.7
2017-07-01T06:41:34.007Z,999.73
2017-07-01T06:42:43.014Z,999.77
2017-07-01T06:43:52.298Z,999.76
2017-07-01T06:45:01.309Z,999.77
2017-07-01T06:46:10.383Z,999.81
2017-07-01T06:47:19.336Z,999.83
2017-07-01T06:48:28.278Z,999.85
2017-07-01T06:49:37.215Z,999.75
2017-07-01T06:50:46.194Z,999.78
2017-07-01T06:51:55.149Z,999.76
2017-07-01T06:53:04.178Z,999.72
2017-07-01T06:54:13.258Z,999.69
2017-07-01T06:55:22.209Z,999.69
2017-07-01T06:56:31.473Z,999.66
2017-07-01T06:57:40.424Z,999.69
2017-07-01T06:58:49.463Z,999.64
2017-07-01T06:59:58.430Z,999.57
2017-07-01T07:01:07.698Z,999.68
2017-07-01T07:02:16.644Z,999.64
2017-07-01T07:03:25.588Z,999.68
2017-07-01T07:04:34.531Z,999.68
2017-07-01T07:05:43.481Z,999.67
2017-07-01T07:06:52.430Z,999.65
2017-07-01T07:08:01.382Z,999.67
2017-07-01T07:09:10.332Z,999.71
2017-07-01T07:10:19.280Z,999.75
2017-07-01T07:11:28.230Z,999.75
2017-07-01T07:12:37.189Z,999.69
2017-07-01T07:13:46.138Z,999.71
2017-07-01T07:14:55.083Z,999.75
2017-07-01T07:16:04.030Z,999.8
2017-07-01T07:17:12.988Z,999.81
2017-07-01T07:18:21.933Z,999.81
2017-07-01T07:19:30.887Z,999.81
2017-07-01T07:20:39.832Z,999.84
2017-07-01T07:21:48.786Z,999.85
2017-07-01T07:22:57.736Z,999.86
2017-07-01T07:24:06.682Z,999.89
2017-07-01T07:25:15.639Z,999.91
2017-07-01T07:26:24.592Z,999.87
2017-07-01T07:27:33.555Z,999.87
2017-07-01T07:28:42.506Z,999.9
2017-07-01T07:29:51.449Z,999.91
2017-07-01T07:31:00.395Z,999.91
2017-07-01T07:32:09.335Z,999.92
2017-07-01T07:33:18.289Z,999.94
2017-07-01T07:34:27.246Z,999.93
2017-07-01T07:35:36.194Z,999.97
2017-07-01T07:36:45.137Z,999.96
2017-07-01T07:37:54.081Z,999.98
2017-07-01T07:39:03.392Z,999.91
2017-07-01T07:40:13.266Z,999.93
2017-07-01T07:41:22.217Z,999.97
2017-07-01T07:42:31.258Z,999.97
2017-07-01T07:43:40.290Z,999.98
2017-07-01T07:44:49.238Z,1000.02
2017-07-01T07:45:58.191Z,1000.03
2017-07-01T07:47:07.149Z,1000.04
2017-07-01T07:48:16.102Z,1000.02
2017-07-01T07:49:25.126Z,1000.06
2017-07-01T07:50:34.083Z,1000.07
2017-07-01T07:51:43.039Z,1000.01
2017-07-01T07:52:52.075Z,999.97
2017-07-01T07:54:01.022Z,999.91
2017-07-01T07:55:09.962Z,1000.05
2017-07-01T07:56:18.913Z,1000.04
2017-07-01T07:57:27.865Z,999.99
2017-07-01T07:58:36.813Z,1000.02
2017-07-01T07:59:45.854Z,1000.02
2017-07-01T08:00:54.802Z,999.97
2017-07-01T08:02:03.752Z,999.98
2017-07-01T08:03:12.703Z,1000.01
2017-07-01T08:04:21.658Z,1000.11
2017-07-01T08:05:30.926Z,1000.12
2017-07-01T08:06:39.875Z,1000.14
2017-07-01T08:07:48.827Z,1000.05
2017-07-01T08:08:57.858Z,1000.09
2017-07-01T08:10:06.818Z,1000.12
2017-07-01T08:11:15.766Z,1000.1
2017-07-01T08:12:24.718Z,1000.08
2017-07-01T08:13:33.677Z,1000.09
2017-07-01T08:14:42.626Z,1000.15
2017-07-01T08:15:51.665Z,1000.1
2017-07-01T08:17:00.610Z,1000.13
2017-07-01T08:18:09.558Z,1000.13
2017-07-01T08:19:18.503Z,1000.09
2017-07-01T08:20:27.459Z,1000.06
2017-07-01T08:21:36.413Z,1000.11
2017-07-01T08:22:45.360Z,1000.09
2017-07-01T08:23:54.310Z,1000.11
2017-07-01T08:25:03.252Z,1000.12
2017-07-01T08:26:12.203Z,1000.09
2017-07-01T08:27:21.145Z,1000.08
2017-07-01T08:28:30.092Z,1000.13
2017-07-01T08:29:39.042Z,1000.12
2017-07-01T08:30:47.984Z,1000.19
2017-07-01T08:31:56.937Z,1000.22
2017-07-01T08:33:05.892Z,1000.21
2017-07-01T08:34:15.256Z,1000.19
2017-07-01T08:35:24.215Z,1000.11
2017-07-01T08:36:33.156Z,1000.17
2017-07-01T08:37:42.103Z,1000.18
2017-07-01T08:38:51.048Z,1000.17
2017-07-01T08:39:59.999Z,1000.17
2017-07-01T08:41:09.047Z,1000.1
2017-07-01T08:42:17.996Z,1000.1
2017-07-01T08:43:26.939Z,1000.09
2017-07-01T08:44:35.887Z,1000.11
2017-07-01T08:45:44.839Z,1000.08
2017-07-01T08:46:53.792Z,1000.06
2017-07-01T08:48:02.732Z,1000.03
2017-07-01T08:49:11.684Z,1000.15
2017-07-01T08:50:20.629Z,1000.18
2017-07-01T08:51:29.578Z,1000.13
2017-07-01T08:52:38.531Z,1000.09
2017-07-01T08:53:47.480Z,1000.16
2017-07-01T08:54:56.428Z,1000.1
2017-07-01T08:56:05.376Z,1000.17
2017-07-01T08:57:14.409Z,1000.13
2017-07-01T08:58:23.731Z,1000.02
2017-07-01T08:59:32.678Z,1000.05
2017-07-01T09:00:41.646Z,1000.02
2017-07-01T09:01:50.592Z,999.96
2017-07-01T09:02:59.860Z,999.97
2017-07-01T09:04:09.128Z,999.96
2017-07-01T09:05:18.080Z,999.93
2017-07-01T09:06:27.028Z,999.98
2017-07-01T09:07:35.976Z,999.98
2017-07-01T09:08:44.928Z,999.96
2017-07-01T09:09:53.877Z,999.9
2017-07-01T09:11:02.819Z,999.89
2017-07-01T09:12:12.096Z,999.88
2017-07-01T09:13:21.050Z,999.86
2017-07-01T09:14:29.992Z,999.92
2017-07-01T09:15:38.937Z,999.88
2017-07-01T09:16:47.881Z,999.86
2017-07-01T09:17:56.828Z,999.76
2017-07-01T09:19:05.775Z,999.75
2017-07-01T09:20:14.728Z,999.72
2017-07-01T09:21:23.684Z,999.79
2017-07-01T09:22:32.636Z,999.76
2017-07-01T09:23:41.904Z,999.82
2017-07-01T09:24:50.854Z,999.86
2017-07-01T09:25:59.803Z,999.82
2017-07-01T09:27:08.837Z,999.78
2017-07-01T09:28:17.789Z,999.8
2017-07-01T09:29:26.731Z,999.87
2017-07-01T09:30:35.688Z,999.89
2017-07-01T09:31:44.729Z,999.86
2017-07-01T09:32:53.765Z,999.87
2017-07-01T09:34:02.714Z,999.9
2017-07-01T09:35:11.661Z,999.87
2017-07-01T09:36:20.601Z,999.86
2017-07-01T09:37:29.547Z,999.94
2017-07-01T09:38:38.494Z,999.9
2017-07-01T09:39:47.530Z,999.96
2017-07-01T09:40:56.510Z,999.93
2017-07-01T09:42:05.459Z,999.97
2017-07-01T09:43:14.412Z,999.95
2017-07-01T09:44:23.360Z,1000
2017-07-01T09:45:32.631Z,1000.09
2017-07-01T09:46:41.582Z,1000.13
2017-07-01T09:47:50.623Z,1000.16
2017-07-01T09:48:59.565Z,1000.1
2017-07-01T09:50:08.517Z,1000.1
2017-07-01T09:51:17.474Z,1000.23
2017-07-01T09:52:26.506Z,1000.07
2017-07-01T09:53:35.454Z,1000.16
2017-07-01T09:54:44.399Z,1000.15
2017-07-01T09:55:53.348Z,1000.15
2017-07-01T09:57:02.292Z,1000.08
2017-07-01T09:58:11.245Z,1000.06
2017-07-01T09:59:20.196Z,1000.06
2017-07-01T10:00:29.148Z,1000.1
2017-07-01T10:01:38.101Z,1000.09
2017-07-01T10:02:47.054Z,1000.11
2017-07-01T10:03:56.006Z,1000.09
2017-07-01T10:05:04.958Z,1000.11
2017-07-01T10:06:13.907Z,1000.05
2017-07-01T10:07:22.852Z,1000.06
2017-07-01T10:08:31.803Z,1000.08
2017-07-01T10:09:40.755Z,1000.04
2017-07-01T10:10:49.705Z,1000.09
2017-07-01T10:11:58.659Z,1000.11
2017-07-01T10:13:07.610Z,1000.07
2017-07-01T10:14:16.561Z,1000.08
2017-07-01T10:15:25.519Z,1000.09
2017-07-01T10:16:34.465Z,1000.05
2017-07-01T10:17:43.511Z,1000.1
2017-07-01T10:18:52.456Z,1000.06
2017-07-01T10:20:01.408Z,1000.14
2017-07-01T10:21:10.358Z,1000.1
2017-07-01T10:22:19.402Z,1000.15
2017-07-01T10:23:28.353Z,1000.13
2017-07-01T10:24:37.294Z,1000.17
2017-07-01T10:25:46.292Z,1000.25
2017-07-01T10:26:55.286Z,1000.33
2017-07-01T10:28:04.236Z,1000.43
2017-07-01T10:29:13.186Z,1000.37
2017-07-01T10:30:22.129Z,1000.41
2017-07-01T10:31:31.080Z,1000.36
2017-07-01T10:32:40.039Z,1000.36
2017-07-01T10:33:48.980Z,1000.38
2017-07-01T10:34:57.933Z,1000.42
2017-07-01T10:36:06.880Z,1000.46
2017-07-01T10:37:15.922Z,1000.47
2017-07-01T10:38:24.869Z,1000.48
2017-07-01T10:39:33.818Z,1000.48
2017-07-01T10:40:42.768Z,1000.49
2017-07-01T10:41:51.715Z,1000.54
2017-07-01T10:43:00.658Z,1000.53
2017-07-01T10:44:09.688Z,1000.5
2017-07-01T10:45:18.688Z,1000.51
2017-07-01T10:46:27.635Z,1000.57
2017-07-01T10:47:36.588Z,1000.48
2017-07-01T10:48:45.530Z,1000.54
2017-07-01T10:49:54.470Z,1000.56
2017-07-01T10:51:03.425Z,1000.58
2017-07-01T10:52:12.370Z,1000.55
2017-07-01T10:53:21.318Z,1000.62
2017-07-01T10:54:30.309Z,1000.64
2017-07-01T10:55:39.256Z,1000.58
2017-07-01T10:56:48.198Z,1000.61
2017-07-01T10:57:57.144Z,1000.68
2017-07-01T10:59:06.094Z,1000.66
2017-07-01T11:00:15.036Z,1000.63
2017-07-01T11:01:23.985Z,1000.64
2017-07-01T11:02:32.932Z,1000.6
2017-07-01T11:03:41.886Z,1000.65
2017-07-01T11:04:50.832Z,1000.65
2017-07-01T11:05:59.877Z,1000.67
2017-07-01T11:07:08.819Z,1000.67
2017-07-01T11:08:17.769Z,1000.73
2017-07-01T11:09:26.719Z,1000.62
2017-07-01T11:10:35.668Z,1000.66
2017-07-01T11:11:44.615Z,1000.66
2017-07-01T11:12:53.564Z,1000.68
2017-07-01T11:14:02.515Z,1000.69
2017-07-01T11:15:11.463Z,1000.69
2017-07-01T11:16:20.407Z,1000.68
2017-07-01T11:17:29.363Z,1000.64
2017-07-01T11:18:38.309Z,1000.62
2017-07-01T11:19:47.260Z,1000.67
2017-07-01T11:20:56.207Z,1000.67
2017-07-01T11:22:05.151Z,1000.69
2017-07-01T11:23:14.102Z,1000.58
2017-07-01T11:24:23.373Z,1000.64
2017-07-01T11:25:32.318Z,1000.54
2017-07-01T11:26:41.265Z,1000.56
2017-07-01T11:27:50.211Z,1000.59
2017-07-01T11:28:59.205Z,1000.6
2017-07-01T11:30:08.154Z,1000.52
2017-07-01T11:31:17.183Z,1000.64
2017-07-01T11:32:26.134Z,1000.59
2017-07-01T11:33:35.409Z,1000.59
2017-07-01T11:34:44.363Z,1000.56
2017-07-01T11:35:53.317Z,1000.53
2017-07-01T11:37:02.263Z,1000.56
2017-07-01T11:38:11.299Z,1000.59
2017-07-01T11:39:20.242Z,1000.56
2017-07-01T11:40:29.188Z,1000.54
2017-07-01T11:41:38.145Z,1000.58
2017-07-01T11:42:47.088Z,1000.57
2017-07-01T11:43:56.136Z,1000.54
2017-07-01T11:45:05.206Z,1000.59
2017-07-01T11:46:14.148Z,1000.5
2017-07-01T11:47:23.194Z,1000.6
2017-07-01T11:48:32.142Z,1000.49
2017-07-01T11:49:41.093Z,1000.57
2017-07-01T11:50:50.042Z,1000.62
2017-07-01T11:51:58.981Z,1000.57
2017-07-01T11:53:08.066Z,1000.49
2017-07-01T11:54:17.332Z,1000.68
2017-07-01T11:55:26.327Z,1000.55
2017-07-01T11:56:35.272Z,1000.51
2017-07-01T11:57:44.221Z,1000.56
2017-07-01T11:58:53.254Z,1000.59
2017-07-01T12:00:02.203Z,1000.58
2017-07-01T12:01:11.173Z,1000.6
2017-07-01T12:02:20.119Z,1000.48
2017-07-01T12:03:29.066Z,1000.52
2017-07-01T12:04:38.024Z,1000.48
2017-07-01T12:05:46.978Z,1000.51
2017-07-01T12:06:55.928Z,1000.48
2017-07-01T12:08:04.967Z,1000.54
2017-07-01T12:09:13.917Z,1000.52
2017-07-01T12:10:22.949Z,1000.58
2017-07-01T12:11:31.902Z,1000.38
2017-07-01T12:12:40.849Z,1000.48
2017-07-01T12:13:49.849Z,1000.59
2017-07-01T12:14:58.798Z,1000.51
2017-07-01T12:16:07.746Z,1000.56
2017-07-01T12:17:16.708Z,1000.59
2017-07-01T12:18:25.662Z,1000.57
2017-07-01T12:19:34.937Z,1000.49
2017-07-01T12:20:43.884Z,1000.51
2017-07-01T12:21:52.951Z,1000.59
2017-07-01T12:23:01.901Z,1000.56
2017-07-01T12:24:10.838Z,1000.6
2017-07-01T12:25:19.788Z,1000.64
2017-07-01T12:26:28.732Z,1000.63
2017-07-01T12:27:37.677Z,1000.65
2017-07-01T12:28:46.956Z,1000.68
2017-07-01T12:29:55.903Z,1000.67
2017-07-01T12:31:04.868Z,1000.68
2017-07-01T12:32:13.807Z,1000.66
2017-07-01T12:33:22.755Z,1000.68
2017-07-01T12:34:31.709Z,1000.65
2017-07-01T12:35:40.655Z,1000.61
2017-07-01T12:36:49.608Z,1000.63
2017-07-01T12:37:58.553Z,1000.67
2017-07-01T12:39:07.589Z,1000.59
2017-07-01T12:40:16.620Z,1000.62
2017-07-01T12:41:25.574Z,1000.62
2017-07-01T12:42:34.517Z,1000.65
2017-07-01T12:43:43.466Z,1000.66
2017-07-01T12:44:52.416Z,1000.73
2017-07-01T12:46:01.456Z,1000.71
2017-07-01T12:47:10.401Z,1000.67
2017-07-01T12:48:19.349Z,1000.71
2017-07-01T12:49:28.303Z,1000.67
2017-07-01T12:50:37.248Z,1000.68
2017-07-01T12:51:46.192Z,1000.66
2017-07-01T12:52:55.226Z,1000.59
2017-07-01T12:54:04.174Z,1000.58
2017-07-01T12:55:13.124Z,1000.65
2017-07-01T12:56:22.068Z,1000.65
2017-07-01T12:57:31.021Z,1000.67
2017-07-01T12:58:39.962Z,1000.7
2017-07-01T12:59:48.908Z,1000.67
2017-07-01T13:00:57.859Z,1000.8
2017-07-01T13:02:06.800Z,1000.75
2017-07-01T13:03:15.743Z,1000.81
2017-07-01T13:04:24.688Z,1000.86
2017-07-01T13:05:33.642Z,1000.83
2017-07-01T13:06:42.686Z,1000.8
2017-07-01T13:07:51.626Z,1000.87
2017-07-01T13:09:00.575Z,1000.84
2017-07-01T13:10:09.536Z,1000.77
2017-07-01T13:11:18.477Z,1000.77
2017-07-01T13:12:27.427Z,1000.76
2017-07-01T13:13:36.375Z,1000.84
2017-07-01T13:14:45.326Z,1000.73
2017-07-01T13:15:54.599Z,1000.77
2017-07-01T13:17:03.551Z,1000.81
2017-07-01T13:18:12.502Z,1000.81
2017-07-01T13:19:21.454Z,1000.82
2017-07-01T13:20:30.405Z,1000.73
2017-07-01T13:21:39.350Z,1000.74
2017-07-01T13:22:48.301Z,1000.76
2017-07-01T13:23:57.250Z,1000.67
2017-07-01T13:25:06.283Z,1000.71
2017-07-01T13:26:15.276Z,1000.72
2017-07-01T13:27:24.315Z,1000.67
2017-07-01T13:28:33.267Z,1000.69
2017-07-01T13:29:42.226Z,1000.71
2017-07-01T13:30:51.262Z,1000.73
2017-07-01T13:32:00.206Z,1000.72
2017-07-01T13:33:09.243Z,1000.66
2017-07-01T13:34:18.189Z,1000.64
2017-07-01T13:35:27.140Z,1000.7
2017-07-01T13:36:36.087Z,1000.63
2017-07-01T13:37:45.046Z,1000.63
2017-07-01T13:38:53.988Z,1000.71
2017-07-01T13:40:02.938Z,1000.72
2017-07-01T13:41:11.990Z,1000.72
2017-07-01T13:42:20.945Z,1000.65
2017-07-01T13:43:29.894Z,1000.64
2017-07-01T13:44:38.842Z,1000.7
2017-07-01T13:45:47.790Z,1000.67
2017-07-01T13:46:56.733Z,1000.66
2017-07-01T13:48:05.682Z,1000.66
2017-07-01T13:49:14.623Z,1000.7
2017-07-01T13:50:23.587Z,1000.72
2017-07-01T13:51:32.861Z,1000.72
2017-07-01T13:52:41.814Z,1000.69
2017-07-01T13:53:50.769Z,1000.67
2017-07-01T13:54:59.719Z,1000.7
2017-07-01T13:56:08.686Z,1000.68
2017-07-01T13:57:17.630Z,1000.66
2017-07-01T13:58:26.584Z,1000.8
2017-07-01T13:59:35.530Z,1000.8
2017-07-01T14:00:44.491Z,1000.78
2017-07-01T14:01:53.527Z,1000.86
2017-07-01T14:03:02.485Z,1000.83
2017-07-01T14:04:11.429Z,1000.82
2017-07-01T14:05:20.381Z,1000.86
2017-07-01T14:06:29.332Z,1000.89
2017-07-01T14:07:38.275Z,1000.83
2017-07-01T14:08:47.218Z,1000.91
2017-07-01T14:09:56.178Z,1000.87
2017-07-01T14:11:05.141Z,1000.84
2017-07-01T14:12:14.083Z,1000.94